Canonbie, United Kingdom
Current Conditions -  °F | °C
As of 1:50 PM on Sunday 25 Jan 2015 (Local Time) from EGOM Reporting Station
Moderate Rain Moderate Rain  
Wind Chill:   Ceiling: 100
Heat Index:   Visibility: 3mi
Dew Point:   Wind: 21mph
Humidity: 100%   Direction: 240°WSW
Pressure: 30.09"   Gusts: NA
Location:  55.08°N, 2.94°W
Report Text: EGOM 251350Z AUTO 24018KT 5000 RA OVC001/// 06/06 Q1019
Loading
Personal Weather Stations






























Interactive Weather Map New forecast layout! Learn more

10-Day Weather Forecast

Advertisements
Track Severe Weather on mobile